sensor_id;sensor_type;location;lat;lon;timestamp;pressure;altitude;pressure_sealevel;temperature;humidity
81547;BME280;71078;48.358;10.960;2023-08-06T00:01:14;95388.41;;;18.85;53.36
81547;BME280;71078;48.358;10.960;2023-08-06T00:03:35;95382.97;;;18.74;53.47
81547;BME280;71078;48.358;10.960;2023-08-06T00:05:56;95375.78;;;18.59;53.27
81547;BME280;71078;48.358;10.960;2023-08-06T00:08:17;95384.13;;;18.59;53.11
81547;BME280;71078;48.358;10.960;2023-08-06T00:10:39;95383.63;;;18.61;53.47
81547;BME280;71078;48.358;10.960;2023-08-06T00:13:00;95386.16;;;18.59;53.29
81547;BME280;71078;48.358;10.960;2023-08-06T00:15:20;95384.59;;;18.63;53.57
81547;BME280;71078;48.358;10.960;2023-08-06T00:17:41;95369.66;;;18.66;53.08
81547;BME280;71078;48.358;10.960;2023-08-06T00:20:03;95372.19;;;18.64;53.40
81547;BME280;71078;48.358;10.960;2023-08-06T00:22:27;95382.47;;;18.51;53.66
81547;BME280;71078;48.358;10.960;2023-08-06T00:24:48;95365.00;;;18.50;53.67
81547;BME280;71078;48.358;10.960;2023-08-06T00:27:08;95364.09;;;18.66;54.38
81547;BME280;71078;48.358;10.960;2023-08-06T00:29:29;95353.59;;;18.78;53.68
81547;BME280;71078;48.358;10.960;2023-08-06T00:31:50;95353.53;;;18.59;52.61
81547;BME280;71078;48.358;10.960;2023-08-06T00:34:10;95366.16;;;18.60;53.40
81547;BME280;71078;48.358;10.960;2023-08-06T00:36:31;95366.88;;;18.66;53.95
81547;BME280;71078;48.358;10.960;2023-08-06T00:38:52;95363.22;;;18.53;53.63
81547;BME280;71078;48.358;10.960;2023-08-06T00:41:12;95363.84;;;18.64;53.51
81547;BME280;71078;48.358;10.960;2023-08-06T00:43:33;95359.84;;;18.60;54.08
81547;BME280;71078;48.358;10.960;2023-08-06T00:45:53;95363.09;;;18.64;54.33
81547;BME280;71078;48.358;10.960;2023-08-06T00:48:14;95369.25;;;18.57;54.22
81547;BME280;71078;48.358;10.960;2023-08-06T00:50:35;95359.38;;;18.56;53.95
81547;BME280;71078;48.358;10.960;2023-08-06T00:52:56;95359.63;;;18.58;54.27
81547;BME280;71078;48.358;10.960;2023-08-06T00:55:17;95350.13;;;18.48;54.84
81547;BME280;71078;48.358;10.960;2023-08-06T00:57:38;95346.34;;;18.45;54.51
81547;BME280;71078;48.358;10.960;2023-08-06T00:59:59;95359.44;;;18.50;54.04
81547;BME280;71078;48.358;10.960;2023-08-06T01:02:20;95367.53;;;18.24;54.76
81547;BME280;71078;48.358;10.960;2023-08-06T01:04:41;95364.25;;;18.20;54.37
81547;BME280;71078;48.358;10.960;2023-08-06T01:10:07;95362.06;;;18.67;53.91
81547;BME280;71078;48.358;10.960;2023-08-06T01:13:16;95353.13;;;18.74;53.55
81547;BME280;71078;48.358;10.960;2023-08-06T01:15:36;95354.13;;;18.52;53.45
81547;BME280;71078;48.358;10.960;2023-08-06T01:17:58;95347.56;;;18.50;53.70
81547;BME280;71078;48.358;10.960;2023-08-06T01:20:19;95348.66;;;18.41;53.88
81547;BME280;71078;48.358;10.960;2023-08-06T01:22:40;95342.94;;;18.33;53.37
81547;BME280;71078;48.358;10.960;2023-08-06T01:25:00;95353.94;;;18.45;53.84
81547;BME280;71078;48.358;10.960;2023-08-06T01:29:45;95355.41;;;18.21;53.58
81547;BME280;71078;48.358;10.960;2023-08-06T01:32:10;95353.34;;;18.27;54.13
81547;BME280;71078;48.358;10.960;2023-08-06T01:34:33;95354.75;;;18.40;53.97
81547;BME280;71078;48.358;10.960;2023-08-06T01:36:55;95359.50;;;18.45;53.73
81547;BME280;71078;48.358;10.960;2023-08-06T01:39:16;95352.44;;;18.44;53.46
81547;BME280;71078;48.358;10.960;2023-08-06T01:41:37;95351.16;;;18.45;53.79
81547;BME280;71078;48.358;10.960;2023-08-06T01:43:57;95346.59;;;18.47;53.54
81547;BME280;71078;48.358;10.960;2023-08-06T01:46:18;95341.00;;;18.23;53.21
81547;BME280;71078;48.358;10.960;2023-08-06T01:48:38;95336.22;;;18.18;53.98
81547;BME280;71078;48.358;10.960;2023-08-06T01:50:59;95331.63;;;18.26;53.82
81547;BME280;71078;48.358;10.960;2023-08-06T01:53:19;95335.94;;;18.21;53.64
81547;BME280;71078;48.358;10.960;2023-08-06T01:55:40;95332.63;;;18.28;53.73
81547;BME280;71078;48.358;10.960;2023-08-06T01:58:01;95326.53;;;18.30;53.92
81547;BME280;71078;48.358;10.960;2023-08-06T02:00:21;95342.81;;;18.15;53.23
81547;BME280;71078;48.358;10.960;2023-08-06T02:02:41;95329.72;;;18.40;53.77
81547;BME280;71078;48.358;10.960;2023-08-06T02:05:02;95319.53;;;18.48;53.52
81547;BME280;71078;48.358;10.960;2023-08-06T02:07:23;95309.66;;;18.47;53.32
81547;BME280;71078;48.358;10.960;2023-08-06T02:09:43;95305.63;;;18.48;53.28
81547;BME280;71078;48.358;10.960;2023-08-06T02:12:04;95302.19;;;18.36;53.58
81547;BME280;71078;48.358;10.960;2023-08-06T02:14:25;95291.66;;;18.29;53.31
81547;BME280;71078;48.358;10.960;2023-08-06T02:16:46;95301.97;;;18.34;53.26
81547;BME280;71078;48.358;10.960;2023-08-06T02:19:06;95287.38;;;18.28;53.96
81547;BME280;71078;48.358;10.960;2023-08-06T02:21:27;95272.88;;;18.35;53.46
81547;BME280;71078;48.358;10.960;2023-08-06T02:23:47;95278.63;;;18.43;53.06
81547;BME280;71078;48.358;10.960;2023-08-06T02:26:08;95281.97;;;18.36;53.40
81547;BME280;71078;48.358;10.960;2023-08-06T02:28:30;95289.47;;;18.22;53.34
81547;BME280;71078;48.358;10.960;2023-08-06T02:30:51;95293.22;;;18.24;53.55
81547;BME280;71078;48.358;10.960;2023-08-06T02:33:12;95288.50;;;18.14;53.34
81547;BME280;71078;48.358;10.960;2023-08-06T02:35:32;95292.75;;;17.90;53.98
81547;BME280;71078;48.358;10.960;2023-08-06T02:37:53;95291.00;;;17.63;54.58
81547;BME280;71078;48.358;10.960;2023-08-06T02:40:13;95294.75;;;17.65;54.58
81547;BME280;71078;48.358;10.960;2023-08-06T02:42:34;95298.69;;;17.46;54.73
81547;BME280;71078;48.358;10.960;2023-08-06T02:44:54;95301.53;;;17.40;55.79
81547;BME280;71078;48.358;10.960;2023-08-06T02:47:15;95302.22;;;17.46;55.00
81547;BME280;71078;48.358;10.960;2023-08-06T02:49:36;95305.09;;;17.29;55.32
81547;BME280;71078;48.358;10.960;2023-08-06T02:51:56;95296.44;;;16.97;56.05
81547;BME280;71078;48.358;10.960;2023-08-06T02:54:18;95301.09;;;17.25;55.59
81547;BME280;71078;48.358;10.960;2023-08-06T02:56:38;95284.63;;;17.32;55.50
81547;BME280;71078;48.358;10.960;2023-08-06T02:58:59;95291.00;;;17.22;55.65
81547;BME280;71078;48.358;10.960;2023-08-06T03:01:20;95289.28;;;17.13;55.62
81547;BME280;71078;48.358;10.960;2023-08-06T03:03:40;95286.22;;;16.76;56.28
81547;BME280;71078;48.358;10.960;2023-08-06T03:06:01;95279.78;;;16.97;55.95
81547;BME280;71078;48.358;10.960;2023-08-06T03:08:22;95283.03;;;17.07;55.94
81547;BME280;71078;48.358;10.960;2023-08-06T03:10:42;95273.75;;;17.40;55.49
81547;BME280;71078;48.358;10.960;2023-08-06T03:13:03;95268.28;;;17.23;55.53
81547;BME280;71078;48.358;10.960;2023-08-06T03:15:23;95275.03;;;17.39;54.87
81547;BME280;71078;48.358;10.960;2023-08-06T03:17:44;95260.44;;;17.27;55.46
81547;BME280;71078;48.358;10.960;2023-08-06T03:20:05;95261.38;;;17.41;54.66
81547;BME280;71078;48.358;10.960;2023-08-06T03:22:26;95251.22;;;17.49;54.99
81547;BME280;71078;48.358;10.960;2023-08-06T03:24:50;95259.47;;;17.60;54.37
81547;BME280;71078;48.358;10.960;2023-08-06T03:27:11;95255.59;;;17.69;54.30
81547;BME280;71078;48.358;10.960;2023-08-06T03:29:31;95244.47;;;17.39;53.86
81547;BME280;71078;48.358;10.960;2023-08-06T03:31:52;95244.63;;;17.52;54.65
81547;BME280;71078;48.358;10.960;2023-08-06T03:34:13;95249.94;;;17.50;54.22
81547;BME280;71078;48.358;10.960;2023-08-06T03:36:34;95254.59;;;17.66;53.95
81547;BME280;71078;48.358;10.960;2023-08-06T03:38:54;95258.09;;;17.37;54.80
81547;BME280;71078;48.358;10.960;2023-08-06T03:41:15;95266.88;;;17.47;54.82
81547;BME280;71078;48.358;10.960;2023-08-06T03:43:36;95261.00;;;17.56;54.77
81547;BME280;71078;48.358;10.960;2023-08-06T03:45:57;95267.44;;;17.40;54.75
81547;BME280;71078;48.358;10.960;2023-08-06T03:48:17;95259.91;;;17.29;55.32
81547;BME280;71078;48.358;10.960;2023-08-06T03:50:38;95260.19;;;17.25;55.14
81547;BME280;71078;48.358;10.960;2023-08-06T03:52:59;95258.88;;;17.32;54.69
81547;BME280;71078;48.358;10.960;2023-08-06T03:55:20;95256.72;;;17.19;55.30
81547;BME280;71078;48.358;10.960;2023-08-06T03:57:41;95256.19;;;17.21;55.45
81547;BME280;71078;48.358;10.960;2023-08-06T04:00:02;95261.84;;;17.04;55.51
81547;BME280;71078;48.358;10.960;2023-08-06T04:02:24;95250.53;;;16.96;55.54
81547;BME280;71078;48.358;10.960;2023-08-06T04:04:44;95258.50;;;17.17;55.19
81547;BME280;71078;48.358;10.960;2023-08-06T04:07:05;95265.97;;;16.92;55.62
81547;BME280;71078;48.358;10.960;2023-08-06T04:09:28;95259.31;;;17.06;55.02
81547;BME280;71078;48.358;10.960;2023-08-06T04:11:49;95264.09;;;17.05;54.85
81547;BME280;71078;48.358;10.960;2023-08-06T04:14:10;95258.59;;;17.00;54.95
81547;BME280;71078;48.358;10.960;2023-08-06T04:16:31;95264.03;;;16.76;55.91
81547;BME280;71078;48.358;10.960;2023-08-06T04:18:51;95257.53;;;17.09;55.28
81547;BME280;71078;48.358;10.960;2023-08-06T04:21:13;95258.31;;;17.03;54.99
81547;BME280;71078;48.358;10.960;2023-08-06T04:23:34;95262.78;;;17.18;54.95
81547;BME280;71078;48.358;10.960;2023-08-06T04:25:58;95263.69;;;17.31;54.44
81547;BME280;71078;48.358;10.960;2023-08-06T04:28:19;95262.13;;;17.36;54.28
81547;BME280;71078;48.358;10.960;2023-08-06T04:30:39;95257.94;;;17.59;53.67
81547;BME280;71078;48.358;10.960;2023-08-06T04:32:59;95253.63;;;17.64;53.38
81547;BME280;71078;48.358;10.960;2023-08-06T04:35:20;95257.19;;;17.59;53.19
81547;BME280;71078;48.358;10.960;2023-08-06T04:37:40;95254.41;;;17.59;53.86
81547;BME280;71078;48.358;10.960;2023-08-06T04:40:01;95251.06;;;17.66;53.54
81547;BME280;71078;48.358;10.960;2023-08-06T04:42:22;95245.53;;;17.66;53.13
81547;BME280;71078;48.358;10.960;2023-08-06T04:44:43;95250.50;;;17.43;53.61
81547;BME280;71078;48.358;10.960;2023-08-06T04:47:03;95250.50;;;17.43;53.49
81547;BME280;71078;48.358;10.960;2023-08-06T04:49:24;95254.50;;;17.48;53.34
81547;BME280;71078;48.358;10.960;2023-08-06T04:51:45;95257.94;;;17.59;53.24
81547;BME280;71078;48.358;10.960;2023-08-06T04:54:06;95254.75;;;17.80;52.92
81547;BME280;71078;48.358;10.960;2023-08-06T04:56:26;95245.06;;;17.86;52.30
81547;BME280;71078;48.358;10.960;2023-08-06T04:58:47;95253.06;;;17.95;52.38
81547;BME280;71078;48.358;10.960;2023-08-06T05:01:08;95245.06;;;18.11;52.48
81547;BME280;71078;48.358;10.960;2023-08-06T05:03:28;95253.09;;;17.90;52.11
81547;BME280;71078;48.358;10.960;2023-08-06T05:05:49;95252.91;;;17.82;52.33
81547;BME280;71078;48.358;10.960;2023-08-06T05:08:14;95239.50;;;17.86;52.22
81547;BME280;71078;48.358;10.960;2023-08-06T05:10:37;95247.88;;;17.81;52.57
81547;BME280;71078;48.358;10.960;2023-08-06T05:12:58;95236.44;;;17.65;53.12
81547;BME280;71078;48.358;10.960;2023-08-06T05:15:18;95255.94;;;17.84;52.55
81547;BME280;71078;48.358;10.960;2023-08-06T05:17:40;95248.34;;;17.85;52.55
81547;BME280;71078;48.358;10.960;2023-08-06T05:20:00;95247.25;;;17.93;52.46
81547;BME280;71078;48.358;10.960;2023-08-06T05:22:21;95247.59;;;17.84;52.43
81547;BME280;71078;48.358;10.960;2023-08-06T05:24:41;95246.00;;;17.70;53.01
81547;BME280;71078;48.358;10.960;2023-08-06T05:27:02;95238.19;;;17.68;52.27
81547;BME280;71078;48.358;10.960;2023-08-06T05:29:23;95243.50;;;17.66;53.24
81547;BME280;71078;48.358;10.960;2023-08-06T05:31:44;95245.06;;;17.86;52.58
81547;BME280;71078;48.358;10.960;2023-08-06T05:34:04;95237.09;;;17.47;53.22
81547;BME280;71078;48.358;10.960;2023-08-06T05:36:25;95242.09;;;17.54;53.42
81547;BME280;71078;48.358;10.960;2023-08-06T05:38:49;95228.75;;;17.47;53.27
81547;BME280;71078;48.358;10.960;2023-08-06T05:41:09;95232.88;;;17.35;53.61
81547;BME280;71078;48.358;10.960;2023-08-06T05:43:30;95236.63;;;17.43;53.08
81547;BME280;71078;48.358;10.960;2023-08-06T05:45:51;95232.00;;;17.16;53.74
81547;BME280;71078;48.358;10.960;2023-08-06T05:48:12;95227.22;;;17.52;52.93
81547;BME280;71078;48.358;10.960;2023-08-06T05:50:33;95220.47;;;17.42;53.74
81547;BME280;71078;48.358;10.960;2023-08-06T05:52:53;95228.00;;;17.11;53.15
81547;BME280;71078;48.358;10.960;2023-08-06T05:55:14;95221.03;;;17.64;53.72
81547;BME280;71078;48.358;10.960;2023-08-06T05:57:34;95227.84;;;17.33;54.05
81547;BME280;71078;48.358;10.960;2023-08-06T05:59:55;95226.72;;;17.78;53.24
81547;BME280;71078;48.358;10.960;2023-08-06T06:02:15;95228.19;;;17.54;53.13
81547;BME280;71078;48.358;10.960;2023-08-06T06:04:37;95227.63;;;16.90;54.44
81547;BME280;71078;48.358;10.960;2023-08-06T06:06:57;95228.81;;;17.00;54.41
81547;BME280;71078;48.358;10.960;2023-08-06T06:09:18;95228.00;;;17.11;54.09
81547;BME280;71078;48.358;10.960;2023-08-06T06:11:39;95226.03;;;17.72;52.80
81547;BME280;71078;48.358;10.960;2023-08-06T06:13:59;95224.34;;;17.63;52.79
81547;BME280;71078;48.358;10.960;2023-08-06T06:16:20;95214.50;;;17.86;52.15
81547;BME280;71078;48.358;10.960;2023-08-06T06:18:41;95226.34;;;16.91;53.04
81547;BME280;71078;48.358;10.960;2023-08-06T06:21:02;95220.66;;;17.14;53.83
81547;BME280;71078;48.358;10.960;2023-08-06T06:23:22;95220.47;;;17.06;52.97
81547;BME280;71078;48.358;10.960;2023-08-06T06:25:43;95210.41;;;17.39;52.94
81547;BME280;71078;48.358;10.960;2023-08-06T06:28:04;95214.69;;;16.57;54.72
81547;BME280;71078;48.358;10.960;2023-08-06T06:30:24;95218.88;;;16.17;54.40
81547;BME280;71078;48.358;10.960;2023-08-06T06:32:45;95219.28;;;16.96;54.08
81547;BME280;71078;48.358;10.960;2023-08-06T06:35:06;95210.66;;;16.58;54.62
81547;BME280;71078;48.358;10.960;2023-08-06T06:37:27;95200.25;;;17.47;53.28
81547;BME280;71078;48.358;10.960;2023-08-06T06:39:47;95216.84;;;17.17;53.59
81547;BME280;71078;48.358;10.960;2023-08-06T06:42:08;95226.03;;;17.72;53.00
81547;BME280;71078;48.358;10.960;2023-08-06T06:44:29;95210.22;;;16.90;54.12
81547;BME280;71078;48.358;10.960;2023-08-06T06:46:49;95204.69;;;17.25;53.80
81547;BME280;71078;48.358;10.960;2023-08-06T06:49:09;95223.16;;;16.76;54.02
81547;BME280;71078;48.358;10.960;2023-08-06T06:51:30;95222.59;;;16.89;54.54
81547;BME280;71078;48.358;10.960;2023-08-06T06:53:52;95222.19;;;16.68;54.87
81547;BME280;71078;48.358;10.960;2023-08-06T06:56:12;95233.91;;;16.96;53.90
81547;BME280;71078;48.358;10.960;2023-08-06T06:58:33;95237.34;;;17.08;54.33
81547;BME280;71078;48.358;10.960;2023-08-06T07:00:54;95221.88;;;16.83;54.68
81547;BME280;71078;48.358;10.960;2023-08-06T07:03:15;95228.81;;;17.42;53.70
81547;BME280;71078;48.358;10.960;2023-08-06T07:05:35;95227.59;;;17.67;53.38
81547;BME280;71078;48.358;10.960;2023-08-06T07:07:56;95221.56;;;17.27;53.85
81547;BME280;71078;48.358;10.960;2023-08-06T07:10:16;95229.84;;;17.68;53.11
81547;BME280;71078;48.358;10.960;2023-08-06T07:12:37;95217.91;;;17.98;52.26
81547;BME280;71078;48.358;10.960;2023-08-06T07:14:58;95219.16;;;17.78;52.74
81547;BME280;71078;48.358;10.960;2023-08-06T07:17:18;95218.44;;;17.96;53.24
81547;BME280;71078;48.358;10.960;2023-08-06T07:19:39;95221.38;;;18.04;52.80
81547;BME280;71078;48.358;10.960;2023-08-06T07:22:00;95224.91;;;18.05;52.03
81547;BME280;71078;48.358;10.960;2023-08-06T07:24:20;95223.81;;;17.29;53.23
81547;BME280;71078;48.358;10.960;2023-08-06T07:26:41;95225.34;;;17.30;53.56
81547;BME280;71078;48.358;10.960;2023-08-06T07:29:01;95232.94;;;17.24;53.67
81547;BME280;71078;48.358;10.960;2023-08-06T07:31:21;95221.69;;;17.46;52.68
81547;BME280;71078;48.358;10.960;2023-08-06T07:33:42;95235.03;;;17.53;52.66
81547;BME280;71078;48.358;10.960;2023-08-06T07:36:13;95244.00;;;17.65;52.11
81547;BME280;71078;48.358;10.960;2023-08-06T07:38:35;95231.88;;;17.68;52.28
81547;BME280;71078;48.358;10.960;2023-08-06T07:40:55;95238.25;;;17.22;52.32
81547;BME280;71078;48.358;10.960;2023-08-06T07:43:16;95241.00;;;17.27;52.96
81547;BME280;71078;48.358;10.960;2023-08-06T07:45:37;95241.63;;;17.09;53.00
81547;BME280;71078;48.358;10.960;2023-08-06T07:47:58;95230.06;;;17.41;51.66
81547;BME280;71078;48.358;10.960;2023-08-06T07:50:19;95243.59;;;17.20;52.24
81547;BME280;71078;48.358;10.960;2023-08-06T07:52:39;95248.25;;;17.72;51.42
81547;BME280;71078;48.358;10.960;2023-08-06T07:55:01;95248.44;;;18.28;50.26
81547;BME280;71078;48.358;10.960;2023-08-06T07:57:25;95246.97;;;17.97;50.25
81547;BME280;71078;48.358;10.960;2023-08-06T07:59:45;95254.84;;;18.17;50.18
81547;BME280;71078;48.358;10.960;2023-08-06T08:02:06;95257.72;;;17.16;50.31
81547;BME280;71078;48.358;10.960;2023-08-06T08:04:26;95254.56;;;17.42;50.09
81547;BME280;71078;48.358;10.960;2023-08-06T08:06:47;95246.84;;;17.84;50.24
81547;BME280;71078;48.358;10.960;2023-08-06T08:09:07;95252.94;;;18.55;49.01
81547;BME280;71078;48.358;10.960;2023-08-06T08:11:28;95257.22;;;17.83;49.71
81547;BME280;71078;48.358;10.960;2023-08-06T08:13:49;95251.06;;;17.90;49.49
81547;BME280;71078;48.358;10.960;2023-08-06T08:16:10;95246.97;;;17.97;49.95
81547;BME280;71078;48.358;10.960;2023-08-06T08:18:30;95252.00;;;17.44;49.47
81547;BME280;71078;48.358;10.960;2023-08-06T08:20:52;95253.09;;;17.30;50.89
81547;BME280;71078;48.358;10.960;2023-08-06T08:23:13;95259.06;;;17.45;51.05
81547;BME280;71078;48.358;10.960;2023-08-06T08:25:33;95258.44;;;17.22;51.16
81547;BME280;71078;48.358;10.960;2023-08-06T08:27:55;95249.84;;;17.26;50.94
81547;BME280;71078;48.358;10.960;2023-08-06T08:30:15;95243.66;;;16.62;51.63
81547;BME280;71078;48.358;10.960;2023-08-06T08:32:36;95249.16;;;17.14;51.42
81547;BME280;71078;48.358;10.960;2023-08-06T08:34:57;95247.06;;;17.86;50.33
81547;BME280;71078;48.358;10.960;2023-08-06T08:37:18;95237.47;;;17.62;49.51
81547;BME280;71078;48.358;10.960;2023-08-06T08:39:39;95245.47;;;17.36;50.36
81547;BME280;71078;48.358;10.960;2023-08-06T08:42:00;95242.00;;;17.90;49.56
81547;BME280;71078;48.358;10.960;2023-08-06T08:44:22;95227.91;;;18.07;48.67
81547;BME280;71078;48.358;10.960;2023-08-06T08:46:48;95236.09;;;17.99;49.02
81547;BME280;71078;48.358;10.960;2023-08-06T08:49:10;95234.50;;;18.52;47.55
81547;BME280;71078;48.358;10.960;2023-08-06T08:51:31;95237.94;;;18.15;47.82
81547;BME280;71078;48.358;10.960;2023-08-06T08:53:53;95241.41;;;18.46;46.89
81547;BME280;71078;48.358;10.960;2023-08-06T08:56:17;95232.66;;;17.63;49.50
81547;BME280;71078;48.358;10.960;2023-08-06T08:58:39;95243.31;;;17.83;49.41
81547;BME280;71078;48.358;10.960;2023-08-06T09:01:00;95251.09;;;16.89;51.55
81547;BME280;71078;48.358;10.960;2023-08-06T09:03:22;95258.88;;;17.32;51.43
81547;BME280;71078;48.358;10.960;2023-08-06T09:05:49;95249.81;;;17.67;51.37
81547;BME280;71078;48.358;10.960;2023-08-06T09:08:12;95255.47;;;16.73;53.79
81547;BME280;71078;48.358;10.960;2023-08-06T09:10:37;95256.34;;;17.34;52.79
81547;BME280;71078;48.358;10.960;2023-08-06T09:12:59;95266.88;;;17.05;53.69
81547;BME280;71078;48.358;10.960;2023-08-06T09:15:24;95258.09;;;17.73;52.71
81547;BME280;71078;48.358;10.960;2023-08-06T09:17:45;95275.88;;;17.23;52.98
81547;BME280;71078;48.358;10.960;2023-08-06T09:20:12;95272.31;;;16.81;54.01
81547;BME280;71078;48.358;10.960;2023-08-06T09:22:34;95279.06;;;16.91;53.73
81547;BME280;71078;48.358;10.960;2023-08-06T09:24:55;95280.00;;;17.05;53.95
81547;BME280;71078;48.358;10.960;2023-08-06T09:27:17;95280.78;;;17.00;54.63
81547;BME280;71078;48.358;10.960;2023-08-06T09:29:45;95276.16;;;16.67;54.91
81547;BME280;71078;48.358;10.960;2023-08-06T09:32:06;95269.31;;;16.73;55.14
81547;BME280;71078;48.358;10.960;2023-08-06T09:34:27;95267.09;;;17.13;54.89
81547;BME280;71078;48.358;10.960;2023-08-06T09:36:54;95278.97;;;17.08;54.92
81547;BME280;71078;48.358;10.960;2023-08-06T09:39:16;95276.03;;;16.20;55.75
81547;BME280;71078;48.358;10.960;2023-08-06T09:41:37;95283.06;;;16.32;56.17
81547;BME280;71078;48.358;10.960;2023-08-06T09:43:57;95272.16;;;16.57;55.65
81547;BME280;71078;48.358;10.960;2023-08-06T09:46:19;95275.06;;;16.06;55.87
81547;BME280;71078;48.358;10.960;2023-08-06T09:48:40;95284.69;;;15.61;57.47
81547;BME280;71078;48.358;10.960;2023-08-06T09:51:02;95283.44;;;15.62;56.78
81547;BME280;71078;48.358;10.960;2023-08-06T09:53:23;95286.94;;;15.57;57.36
81547;BME280;71078;48.358;10.960;2023-08-06T09:55:45;95280.81;;;16.25;56.13
81547;BME280;71078;48.358;10.960;2023-08-06T09:58:06;95281.72;;;16.67;55.84
81547;BME280;71078;48.358;10.960;2023-08-06T10:00:27;95281.28;;;16.52;55.36
81547;BME280;71078;48.358;10.960;2023-08-06T10:02:49;95292.47;;;16.87;54.74
81547;BME280;71078;48.358;10.960;2023-08-06T10:05:12;95282.25;;;17.12;55.40
81547;BME280;71078;48.358;10.960;2023-08-06T10:07:33;95281.41;;;15.85;56.99
81547;BME280;71078;48.358;10.960;2023-08-06T10:09:55;95293.44;;;16.95;54.69
81547;BME280;71078;48.358;10.960;2023-08-06T10:12:15;95288.66;;;16.90;55.06
81547;BME280;71078;48.358;10.960;2023-08-06T10:14:38;95293.22;;;17.29;53.74
81547;BME280;71078;48.358;10.960;2023-08-06T10:17:02;95283.34;;;16.18;55.68
81547;BME280;71078;48.358;10.960;2023-08-06T10:19:24;95284.13;;;16.18;56.30
81547;BME280;71078;48.358;10.960;2023-08-06T10:22:08;95281.31;;;16.98;54.83
81547;BME280;71078;48.358;10.960;2023-08-06T10:24:54;95277.69;;;16.68;55.36
81547;BME280;71078;48.358;10.960;2023-08-06T10:27:23;95275.72;;;16.40;54.40
81547;BME280;71078;48.358;10.960;2023-08-06T10:29:43;95281.03;;;16.38;54.62
81547;BME280;71078;48.358;10.960;2023-08-06T10:32:04;95282.88;;;16.08;55.18
81547;BME280;71078;48.358;10.960;2023-08-06T10:34:53;95290.34;;;16.52;55.03
81547;BME280;71078;48.358;10.960;2023-08-06T10:37:15;95298.72;;;16.19;54.77
81547;BME280;71078;48.358;10.960;2023-08-06T10:39:36;95293.00;;;15.61;55.73
81547;BME280;71078;48.358;10.960;2023-08-06T10:41:57;95284.91;;;16.07;56.56
81547;BME280;71078;48.358;10.960;2023-08-06T10:44:20;95288.34;;;16.41;56.05
81547;BME280;71078;48.358;10.960;2023-08-06T10:46:45;95302.25;;;16.14;55.93
81547;BME280;71078;48.358;10.960;2023-08-06T10:49:11;95308.81;;;16.16;55.41
81547;BME280;71078;48.358;10.960;2023-08-06T10:51:32;95302.53;;;16.04;55.44
81547;BME280;71078;48.358;10.960;2023-08-06T10:53:53;95307.28;;;16.15;54.92
81547;BME280;71078;48.358;10.960;2023-08-06T10:56:21;95307.31;;;15.93;54.31
81547;BME280;71078;48.358;10.960;2023-08-06T10:58:46;95300.78;;;15.79;55.43
81547;BME280;71078;48.358;10.960;2023-08-06T11:01:07;95292.38;;;16.40;55.45
81547;BME280;71078;48.358;10.960;2023-08-06T11:03:28;95297.25;;;16.06;55.25
81547;BME280;71078;48.358;10.960;2023-08-06T11:05:49;95303.41;;;16.63;53.77
81547;BME280;71078;48.358;10.960;2023-08-06T11:08:10;95309.34;;;15.75;55.29
81547;BME280;71078;48.358;10.960;2023-08-06T11:10:34;95296.75;;;16.02;54.74
81547;BME280;71078;48.358;10.960;2023-08-06T11:13:00;95290.75;;;16.79;53.76
81547;BME280;71078;48.358;10.960;2023-08-06T11:15:21;95296.66;;;17.05;53.00
81547;BME280;71078;48.358;10.960;2023-08-06T11:17:42;95282.06;;;16.35;52.63
81547;BME280;71078;48.358;10.960;2023-08-06T11:20:03;95310.47;;;16.64;53.82
81547;BME280;71078;48.358;10.960;2023-08-06T11:22:24;95299.44;;;16.36;53.31
81547;BME280;71078;48.358;10.960;2023-08-06T11:24:45;95296.63;;;16.53;53.38
81547;BME280;71078;48.358;10.960;2023-08-06T11:27:13;95304.63;;;16.73;52.77
81547;BME280;71078;48.358;10.960;2023-08-06T11:29:37;95305.72;;;16.42;52.37
81547;BME280;71078;48.358;10.960;2023-08-06T11:32:05;95297.03;;;17.26;51.58
81547;BME280;71078;48.358;10.960;2023-08-06T11:34:25;95302.63;;;16.68;52.38
81547;BME280;71078;48.358;10.960;2023-08-06T11:36:46;95306.47;;;16.48;52.37
81547;BME280;71078;48.358;10.960;2023-08-06T11:39:07;95295.72;;;16.91;52.47
81547;BME280;71078;48.358;10.960;2023-08-06T11:41:28;95290.25;;;17.21;50.94
81547;BME280;71078;48.358;10.960;2023-08-06T11:43:49;95297.59;;;18.14;49.93
81547;BME280;71078;48.358;10.960;2023-08-06T11:46:10;95283.28;;;17.50;50.41
81547;BME280;71078;48.358;10.960;2023-08-06T11:48:31;95279.50;;;18.02;50.13
81547;BME280;71078;48.358;10.960;2023-08-06T11:50:54;95300.69;;;17.81;49.33
81547;BME280;71078;48.358;10.960;2023-08-06T11:53:15;95290.88;;;17.44;49.48
81547;BME280;71078;48.358;10.960;2023-08-06T11:55:36;95296.91;;;17.48;49.74
81547;BME280;71078;48.358;10.960;2023-08-06T11:57:57;95287.03;;;17.53;50.58
81547;BME280;71078;48.358;10.960;2023-08-06T12:00:18;95297.50;;;17.71;49.50
81547;BME280;71078;48.358;10.960;2023-08-06T12:02:41;95287.31;;;17.08;50.76
81547;BME280;71078;48.358;10.960;2023-08-06T12:05:11;95313.75;;;17.15;51.70
81547;BME280;71078;48.358;10.960;2023-08-06T12:07:32;95311.34;;;17.77;51.43
81547;BME280;71078;48.358;10.960;2023-08-06T12:09:57;95318.47;;;16.79;51.95
81547;BME280;71078;48.358;10.960;2023-08-06T12:12:18;95312.00;;;16.54;53.65
81547;BME280;71078;48.358;10.960;2023-08-06T12:14:39;95323.22;;;16.89;52.27
81547;BME280;71078;48.358;10.960;2023-08-06T12:16:59;95333.84;;;17.32;51.17
81547;BME280;71078;48.358;10.960;2023-08-06T12:19:20;95331.59;;;17.30;52.43
81547;BME280;71078;48.358;10.960;2023-08-06T12:21:41;95345.88;;;16.99;52.69
81547;BME280;71078;48.358;10.960;2023-08-06T12:24:01;95336.19;;;16.64;54.29
81547;BME280;71078;48.358;10.960;2023-08-06T12:26:22;95342.00;;;16.50;54.70